Terminal Aerodrome Forecast
Issued by NWS Wilmington, OH

Current Version | Previous Version | Graphics & Text | Print | Product List | Glossary On
Versions: 1 2 3 4 5 6 7 8 9 10 11 12
000
FTUS41 KILN 152300
TAFILN
TAF
KILN 152320Z 1600/1624 32011KT P6SM BKN050
     FM160100 33006KT P6SM FEW050
     FM160400 VRB02KT P6SM SKC
     FM161300 13011KT P6SM SCT250=

USA.gov is the U.S. government's official web portal to all federal, state and local government web resources and services.